sensor_id;sensor_type;location;lat;lon;timestamp;pressure;altitude;pressure_sealevel;temperature;humidity
39341;BME280;25059;52.132;21.062;2023-04-27T00:02:57;100395.44;;;12.33;52.63
39341;BME280;25059;52.132;21.062;2023-04-27T00:05:42;100382.03;;;12.19;52.34
39341;BME280;25059;52.132;21.062;2023-04-27T00:08:27;100388.03;;;12.60;51.41
39341;BME280;25059;52.132;21.062;2023-04-27T00:11:11;100382.31;;;12.32;52.05
39341;BME280;25059;52.132;21.062;2023-04-27T00:13:56;100380.75;;;11.88;52.67
39341;BME280;25059;52.132;21.062;2023-04-27T00:16:40;100384.88;;;12.33;52.33
39341;BME280;25059;52.132;21.062;2023-04-27T00:19:25;100383.81;;;12.75;51.47
39341;BME280;25059;52.132;21.062;2023-04-27T00:22:09;100384.31;;;12.45;52.01
39341;BME280;25059;52.132;21.062;2023-04-27T00:24:54;100381.56;;;13.03;50.40
39341;BME280;25059;52.132;21.062;2023-04-27T00:27:38;100387.59;;;12.32;51.89
39341;BME280;25059;52.132;21.062;2023-04-27T00:30:23;100389.22;;;12.15;51.60
39341;BME280;25059;52.132;21.062;2023-04-27T00:33:07;100402.69;;;11.89;53.41
39341;BME280;25059;52.132;21.062;2023-04-27T00:35:52;100384.94;;;11.72;53.45
39341;BME280;25059;52.132;21.062;2023-04-27T00:38:37;100389.25;;;12.53;52.57
39341;BME280;25059;52.132;21.062;2023-04-27T00:41:21;100388.66;;;12.84;51.89
39341;BME280;25059;52.132;21.062;2023-04-27T00:44:06;100406.34;;;11.64;53.88
39341;BME280;25059;52.132;21.062;2023-04-27T00:46:51;100392.72;;;12.72;52.02
39341;BME280;25059;52.132;21.062;2023-04-27T00:49:37;100405.78;;;12.38;52.45
39341;BME280;25059;52.132;21.062;2023-04-27T00:52:22;100408.69;;;12.32;51.57
39341;BME280;25059;52.132;21.062;2023-04-27T00:55:07;100405.56;;;12.42;53.59
39341;BME280;25059;52.132;21.062;2023-04-27T00:57:51;100403.09;;;11.58;54.26
39341;BME280;25059;52.132;21.062;2023-04-27T01:00:36;100394.38;;;12.75;51.16
39341;BME280;25059;52.132;21.062;2023-04-27T01:03:22;100402.56;;;12.69;51.01
39341;BME280;25059;52.132;21.062;2023-04-27T01:06:07;100397.28;;;13.60;50.33
39341;BME280;25059;52.132;21.062;2023-04-27T01:08:51;100411.59;;;13.19;50.65
39341;BME280;25059;52.132;21.062;2023-04-27T01:11:36;100406.84;;;12.71;52.33
39341;BME280;25059;52.132;21.062;2023-04-27T01:14:20;100417.75;;;12.06;52.36
39341;BME280;25059;52.132;21.062;2023-04-27T01:17:05;100415.19;;;11.84;52.72
39341;BME280;25059;52.132;21.062;2023-04-27T01:19:49;100409.56;;;12.70;52.09
39341;BME280;25059;52.132;21.062;2023-04-27T01:22:39;100413.19;;;12.48;52.89
39341;BME280;25059;52.132;21.062;2023-04-27T01:25:24;100424.88;;;12.04;54.45
39341;BME280;25059;52.132;21.062;2023-04-27T01:28:11;100420.84;;;12.15;52.70
39341;BME280;25059;52.132;21.062;2023-04-27T01:30:56;100407.84;;;11.50;53.50
39341;BME280;25059;52.132;21.062;2023-04-27T01:33:41;100425.19;;;11.33;55.21
39341;BME280;25059;52.132;21.062;2023-04-27T01:36:26;100406.41;;;12.61;52.68
39341;BME280;25059;52.132;21.062;2023-04-27T01:39:11;100411.38;;;11.91;52.41
39341;BME280;25059;52.132;21.062;2023-04-27T01:41:55;100411.59;;;12.25;52.74
39341;BME280;25059;52.132;21.062;2023-04-27T01:44:40;100417.03;;;12.60;52.49
39341;BME280;25059;52.132;21.062;2023-04-27T01:47:25;100415.56;;;12.73;51.85
39341;BME280;25059;52.132;21.062;2023-04-27T01:50:10;100403.06;;;12.77;51.34
39341;BME280;25059;52.132;21.062;2023-04-27T01:52:55;100417.22;;;11.77;52.43
39341;BME280;25059;52.132;21.062;2023-04-27T01:55:39;100438.28;;;11.35;54.90
39341;BME280;25059;52.132;21.062;2023-04-27T01:58:24;100430.41;;;11.98;53.29
39341;BME280;25059;52.132;21.062;2023-04-27T02:01:09;100427.19;;;11.91;52.39
39341;BME280;25059;52.132;21.062;2023-04-27T02:03:54;100431.19;;;12.00;52.83
39341;BME280;25059;52.132;21.062;2023-04-27T02:06:39;100422.53;;;11.76;53.98
39341;BME280;25059;52.132;21.062;2023-04-27T02:09:24;100435.63;;;11.57;53.28
39341;BME280;25059;52.132;21.062;2023-04-27T02:12:08;100429.31;;;12.22;53.14
39341;BME280;25059;52.132;21.062;2023-04-27T02:14:53;100424.84;;;11.63;52.86
39341;BME280;25059;52.132;21.062;2023-04-27T02:17:37;100429.22;;;11.84;53.21
39341;BME280;25059;52.132;21.062;2023-04-27T02:20:22;100413.88;;;12.33;51.54
39341;BME280;25059;52.132;21.062;2023-04-27T02:23:06;100438.25;;;11.79;52.08
39341;BME280;25059;52.132;21.062;2023-04-27T02:25:51;100437.97;;;11.85;52.72
39341;BME280;25059;52.132;21.062;2023-04-27T02:28:35;100432.53;;;11.25;53.46
39341;BME280;25059;52.132;21.062;2023-04-27T02:31:20;100435.53;;;11.38;52.83
39341;BME280;25059;52.132;21.062;2023-04-27T02:34:04;100429.84;;;11.69;52.67
39341;BME280;25059;52.132;21.062;2023-04-27T02:36:49;100430.47;;;12.16;51.33
39341;BME280;25059;52.132;21.062;2023-04-27T02:39:33;100431.47;;;11.51;52.21
39341;BME280;25059;52.132;21.062;2023-04-27T02:42:18;100426.47;;;11.87;52.26
39341;BME280;25059;52.132;21.062;2023-04-27T02:45:05;100424.31;;;12.92;51.43
39341;BME280;25059;52.132;21.062;2023-04-27T02:47:50;100426.59;;;11.84;51.85
39341;BME280;25059;52.132;21.062;2023-04-27T02:50:39;100435.44;;;12.22;52.98
39341;BME280;25059;52.132;21.062;2023-04-27T02:53:24;100430.94;;;11.43;52.75
39341;BME280;25059;52.132;21.062;2023-04-27T02:56:09;100437.75;;;11.69;51.96
39341;BME280;25059;52.132;21.062;2023-04-27T02:58:53;100447.34;;;11.28;53.29
39341;BME280;25059;52.132;21.062;2023-04-27T03:01:39;100444.69;;;10.13;56.09
39341;BME280;25059;52.132;21.062;2023-04-27T03:04:23;100447.41;;;11.26;54.08
39341;BME280;25059;52.132;21.062;2023-04-27T03:07:08;100436.69;;;10.87;53.85
39341;BME280;25059;52.132;21.062;2023-04-27T03:09:53;100455.22;;;10.84;53.89
39341;BME280;25059;52.132;21.062;2023-04-27T03:12:37;100459.38;;;9.93;56.23
39341;BME280;25059;52.132;21.062;2023-04-27T03:15:22;100458.47;;;11.35;52.94
39341;BME280;25059;52.132;21.062;2023-04-27T03:18:06;100454.81;;;10.48;54.87
39341;BME280;25059;52.132;21.062;2023-04-27T03:20:51;100457.69;;;11.11;53.68
39341;BME280;25059;52.132;21.062;2023-04-27T03:23:35;100458.53;;;11.33;53.79
39341;BME280;25059;52.132;21.062;2023-04-27T03:26:20;100453.94;;;11.60;52.65
39341;BME280;25059;52.132;21.062;2023-04-27T03:29:05;100454.75;;;11.40;52.63
39341;BME280;25059;52.132;21.062;2023-04-27T03:31:49;100457.66;;;12.17;50.77
39341;BME280;25059;52.132;21.062;2023-04-27T03:34:34;100446.53;;;12.10;50.38
39341;BME280;25059;52.132;21.062;2023-04-27T03:37:18;100458.13;;;12.06;51.03
39341;BME280;25059;52.132;21.062;2023-04-27T03:40:04;100461.03;;;11.58;52.88
39341;BME280;25059;52.132;21.062;2023-04-27T03:42:50;100464.22;;;11.00;53.71
39341;BME280;25059;52.132;21.062;2023-04-27T03:45:35;100455.84;;;11.13;53.17
39341;BME280;25059;52.132;21.062;2023-04-27T03:48:20;100459.72;;;12.10;52.13
39341;BME280;25059;52.132;21.062;2023-04-27T03:51:05;100456.13;;;12.71;49.27
39341;BME280;25059;52.132;21.062;2023-04-27T03:53:50;100465.09;;;11.01;52.80
39341;BME280;25059;52.132;21.062;2023-04-27T03:56:34;100456.59;;;12.41;50.35
39341;BME280;25059;52.132;21.062;2023-04-27T03:59:20;100456.75;;;12.18;50.68
39341;BME280;25059;52.132;21.062;2023-04-27T04:02:04;100465.13;;;11.87;51.34
39341;BME280;25059;52.132;21.062;2023-04-27T04:04:49;100482.38;;;11.72;52.03
39341;BME280;25059;52.132;21.062;2023-04-27T04:07:52;100467.94;;;12.03;50.82
39341;BME280;25059;52.132;21.062;2023-04-27T04:10:37;100479.31;;;12.44;50.56
39341;BME280;25059;52.132;21.062;2023-04-27T04:13:22;100467.16;;;12.98;48.87
39341;BME280;25059;52.132;21.062;2023-04-27T04:16:08;100469.50;;;12.66;50.86
39341;BME280;25059;52.132;21.062;2023-04-27T04:18:52;100488.44;;;12.94;48.75
39341;BME280;25059;52.132;21.062;2023-04-27T04:21:37;100495.03;;;12.06;50.49
39341;BME280;25059;52.132;21.062;2023-04-27T04:24:21;100495.13;;;12.44;50.17
39341;BME280;25059;52.132;21.062;2023-04-27T04:27:06;100500.63;;;12.39;50.28
39341;BME280;25059;52.132;21.062;2023-04-27T04:29:51;100493.06;;;12.71;49.75
39341;BME280;25059;52.132;21.062;2023-04-27T04:32:36;100492.88;;;12.55;49.68
39341;BME280;25059;52.132;21.062;2023-04-27T04:35:21;100507.22;;;12.09;51.18
39341;BME280;25059;52.132;21.062;2023-04-27T04:38:05;100500.69;;;12.17;50.32
39341;BME280;25059;52.132;21.062;2023-04-27T04:40:50;100504.22;;;12.57;50.33
39341;BME280;25059;52.132;21.062;2023-04-27T04:43:35;100505.75;;;12.81;49.99
39341;BME280;25059;52.132;21.062;2023-04-27T04:46:20;100496.13;;;13.90;47.98
39341;BME280;25059;52.132;21.062;2023-04-27T04:49:05;100503.06;;;13.20;48.93
39341;BME280;25059;52.132;21.062;2023-04-27T04:51:50;100484.75;;;14.40;46.68
39341;BME280;25059;52.132;21.062;2023-04-27T04:54:34;100499.56;;;14.27;47.54
39341;BME280;25059;52.132;21.062;2023-04-27T04:57:19;100497.84;;;13.91;47.81
39341;BME280;25059;52.132;21.062;2023-04-27T05:00:07;100503.84;;;14.79;47.63
39341;BME280;25059;52.132;21.062;2023-04-27T05:02:56;100510.53;;;13.84;47.67
39341;BME280;25059;52.132;21.062;2023-04-27T05:05:40;100509.03;;;13.96;48.12
39341;BME280;25059;52.132;21.062;2023-04-27T05:08:25;100509.75;;;14.00;47.73
39341;BME280;25059;52.132;21.062;2023-04-27T05:11:09;100508.09;;;14.49;47.03
39341;BME280;25059;52.132;21.062;2023-04-27T05:13:54;100504.88;;;13.56;48.25
39341;BME280;25059;52.132;21.062;2023-04-27T05:16:39;100520.25;;;13.10;49.10
39341;BME280;25059;52.132;21.062;2023-04-27T05:19:23;100504.13;;;13.71;48.63
39341;BME280;25059;52.132;21.062;2023-04-27T05:22:08;100510.06;;;13.40;49.66
39341;BME280;25059;52.132;21.062;2023-04-27T05:24:53;100514.16;;;13.82;48.82
39341;BME280;25059;52.132;21.062;2023-04-27T05:27:38;100504.69;;;14.12;47.88
39341;BME280;25059;52.132;21.062;2023-04-27T05:30:22;100502.75;;;14.16;47.82
39341;BME280;25059;52.132;21.062;2023-04-27T05:33:07;100523.28;;;13.94;48.64
39341;BME280;25059;52.132;21.062;2023-04-27T05:35:51;100511.66;;;14.65;47.67
39341;BME280;25059;52.132;21.062;2023-04-27T05:38:39;100516.59;;;15.20;45.98
39341;BME280;25059;52.132;21.062;2023-04-27T05:41:23;100518.97;;;14.93;46.56
39341;BME280;25059;52.132;21.062;2023-04-27T05:44:08;100517.22;;;14.26;47.37
39341;BME280;25059;52.132;21.062;2023-04-27T05:46:52;100522.19;;;14.49;47.46
39341;BME280;25059;52.132;21.062;2023-04-27T05:49:37;100518.53;;;14.85;46.83
39341;BME280;25059;52.132;21.062;2023-04-27T05:52:22;100507.53;;;15.08;46.14
39341;BME280;25059;52.132;21.062;2023-04-27T05:55:12;100524.94;;;14.81;46.56
39341;BME280;25059;52.132;21.062;2023-04-27T05:57:57;100518.06;;;15.73;44.83
39341;BME280;25059;52.132;21.062;2023-04-27T06:00:42;100523.41;;;14.93;45.43
39341;BME280;25059;52.132;21.062;2023-04-27T06:03:35;100518.44;;;16.55;44.56
39341;BME280;25059;52.132;21.062;2023-04-27T06:06:35;100523.59;;;15.52;45.27
39341;BME280;25059;52.132;21.062;2023-04-27T06:09:21;100536.94;;;15.19;45.48
39341;BME280;25059;52.132;21.062;2023-04-27T06:12:07;100518.59;;;15.94;45.69
39341;BME280;25059;52.132;21.062;2023-04-27T06:14:54;100533.09;;;15.09;45.46
39341;BME280;25059;52.132;21.062;2023-04-27T06:21:53;100521.25;;;17.79;42.37
39341;BME280;25059;52.132;21.062;2023-04-27T06:24:41;100534.13;;;17.02;42.73
39341;BME280;25059;52.132;21.062;2023-04-27T06:27:29;100538.31;;;16.34;42.55
39341;BME280;25059;52.132;21.062;2023-04-27T06:30:32;100530.19;;;17.36;41.65
39341;BME280;25059;52.132;21.062;2023-04-27T06:33:18;100534.19;;;16.58;42.87
39341;BME280;25059;52.132;21.062;2023-04-27T06:36:17;100531.16;;;18.29;41.31
39341;BME280;25059;52.132;21.062;2023-04-27T06:39:18;100518.38;;;18.21;41.34
39341;BME280;25059;52.132;21.062;2023-04-27T06:42:22;100528.91;;;17.56;41.34
39341;BME280;25059;52.132;21.062;2023-04-27T06:45:13;100528.00;;;16.29;43.02
39341;BME280;25059;52.132;21.062;2023-04-27T06:48:03;100518.88;;;17.47;41.58
39341;BME280;25059;52.132;21.062;2023-04-27T06:50:59;100537.16;;;16.24;42.32
39341;BME280;25059;52.132;21.062;2023-04-27T06:53:57;100539.06;;;16.66;41.51
39341;BME280;25059;52.132;21.062;2023-04-27T06:56:42;100534.91;;;17.87;40.96
39341;BME280;25059;52.132;21.062;2023-04-27T07:04:33;100546.66;;;17.70;39.97
39341;BME280;25059;52.132;21.062;2023-04-27T07:07:18;100548.13;;;15.88;42.40
39341;BME280;25059;52.132;21.062;2023-04-27T07:15:00;100540.84;;;17.63;38.77
39341;BME280;25059;52.132;21.062;2023-04-27T07:17:51;100554.34;;;16.91;41.41
39341;BME280;25059;52.132;21.062;2023-04-27T07:20:41;100534.38;;;16.55;40.90
39341;BME280;25059;52.132;21.062;2023-04-27T07:23:30;100538.97;;;17.10;41.03
39341;BME280;25059;52.132;21.062;2023-04-27T07:26:21;100549.84;;;18.54;39.63
39341;BME280;25059;52.132;21.062;2023-04-27T07:29:08;100526.13;;;17.72;39.86
39341;BME280;25059;52.132;21.062;2023-04-27T07:31:59;100552.56;;;17.88;40.99
39341;BME280;25059;52.132;21.062;2023-04-27T07:34:44;100550.69;;;17.34;41.38
39341;BME280;25059;52.132;21.062;2023-04-27T07:37:42;100513.22;;;17.93;40.35
39341;BME280;25059;52.132;21.062;2023-04-27T07:40:35;100530.84;;;17.81;39.86
39341;BME280;25059;52.132;21.062;2023-04-27T07:43:23;100520.31;;;17.80;39.08
39341;BME280;25059;52.132;21.062;2023-04-27T07:46:24;100526.81;;;18.28;39.83
39341;BME280;25059;52.132;21.062;2023-04-27T07:49:17;100553.94;;;18.20;40.20
39341;BME280;25059;52.132;21.062;2023-04-27T07:52:04;100557.44;;;17.26;42.15
39341;BME280;25059;52.132;21.062;2023-04-27T07:54:51;100539.25;;;17.61;40.56
39341;BME280;25059;52.132;21.062;2023-04-27T08:10:52;100554.28;;;17.89;38.96
39341;BME280;25059;52.132;21.062;2023-04-27T08:13:47;100526.66;;;17.50;39.21
39341;BME280;25059;52.132;21.062;2023-04-27T08:16:52;100557.22;;;18.89;37.31
39341;BME280;25059;52.132;21.062;2023-04-27T08:19:40;100554.72;;;17.95;38.98
39341;BME280;25059;52.132;21.062;2023-04-27T08:22:28;100566.84;;;19.53;36.96
39341;BME280;25059;52.132;21.062;2023-04-27T08:25:12;100549.69;;;18.18;38.09
39341;BME280;25059;52.132;21.062;2023-04-27T08:28:06;100583.78;;;18.38;36.31
39341;BME280;25059;52.132;21.062;2023-04-27T08:30:54;100544.41;;;20.04;34.83
39341;BME280;25059;52.132;21.062;2023-04-27T08:33:45;100565.44;;;18.86;35.76
39341;BME280;25059;52.132;21.062;2023-04-27T08:36:30;100538.63;;;19.13;34.80
39341;BME280;25059;52.132;21.062;2023-04-27T08:39:22;100571.88;;;20.41;34.43
39341;BME280;25059;52.132;21.062;2023-04-27T08:42:10;100550.09;;;20.91;33.53
39341;BME280;25059;52.132;21.062;2023-04-27T08:44:55;100560.34;;;20.40;33.43
39341;BME280;25059;52.132;21.062;2023-04-27T08:47:53;100541.78;;;20.50;33.95
39341;BME280;25059;52.132;21.062;2023-04-27T09:03:37;100547.09;;;20.04;33.86
39341;BME280;25059;52.132;21.062;2023-04-27T09:06:42;100567.44;;;20.28;33.64
39341;BME280;25059;52.132;21.062;2023-04-27T09:09:36;100576.44;;;19.56;34.23
39341;BME280;25059;52.132;21.062;2023-04-27T09:12:23;100553.94;;;20.19;33.09
39341;BME280;25059;52.132;21.062;2023-04-27T09:15:14;100560.44;;;20.04;33.84
39341;BME280;25059;52.132;21.062;2023-04-27T09:18:03;100548.56;;;19.84;34.12
39341;BME280;25059;52.132;21.062;2023-04-27T09:20:59;100556.63;;;19.95;33.77
39341;BME280;25059;52.132;21.062;2023-04-27T09:23:44;100546.09;;;20.75;32.90
39341;BME280;25059;52.132;21.062;2023-04-27T09:26:48;100549.03;;;19.41;33.62
39341;BME280;25059;52.132;21.062;2023-04-27T09:29:39;100563.72;;;20.88;32.32
39341;BME280;25059;52.132;21.062;2023-04-27T09:32:24;100565.59;;;19.70;33.12
39341;BME280;25059;52.132;21.062;2023-04-27T09:35:20;100529.88;;;20.43;31.66
39341;BME280;25059;52.132;21.062;2023-04-27T09:38:11;100554.75;;;19.60;32.89
39341;BME280;25059;52.132;21.062;2023-04-27T09:40:57;100556.47;;;19.61;32.60
39341;BME280;25059;52.132;21.062;2023-04-27T09:43:44;100546.47;;;19.76;32.26
39341;BME280;25059;52.132;21.062;2023-04-27T09:46:33;100531.09;;;22.67;30.19
39341;BME280;25059;52.132;21.062;2023-04-27T09:49:34;100534.41;;;20.76;31.11
39341;BME280;25059;52.132;21.062;2023-04-27T09:52:20;100537.22;;;20.96;31.92
39341;BME280;25059;52.132;21.062;2023-04-27T09:55:14;100543.88;;;21.58;30.05
39341;BME280;25059;52.132;21.062;2023-04-27T10:01:14;100550.44;;;19.71;31.90
39341;BME280;25059;52.132;21.062;2023-04-27T10:07:43;100557.22;;;19.51;33.76
39341;BME280;25059;52.132;21.062;2023-04-27T10:10:29;100557.84;;;18.92;34.55
39341;BME280;25059;52.132;21.062;2023-04-27T10:13:21;100572.28;;;17.98;37.01
39341;BME280;25059;52.132;21.062;2023-04-27T10:16:14;100544.31;;;18.05;36.70
39341;BME280;25059;52.132;21.062;2023-04-27T10:19:08;100577.81;;;17.95;36.17
39341;BME280;25059;52.132;21.062;2023-04-27T10:21:55;100597.88;;;16.44;37.48
39341;BME280;25059;52.132;21.062;2023-04-27T10:24:41;100568.44;;;17.34;36.12
39341;BME280;25059;52.132;21.062;2023-04-27T10:27:38;100583.66;;;17.03;34.95
39341;BME280;25059;52.132;21.062;2023-04-27T10:30:32;100589.34;;;15.93;35.23
39341;BME280;25059;52.132;21.062;2023-04-27T10:33:24;100603.00;;;16.47;33.34
39341;BME280;25059;52.132;21.062;2023-04-27T10:36:16;100598.78;;;16.29;36.69
39341;BME280;25059;52.132;21.062;2023-04-27T10:39:20;100567.81;;;16.43;38.01
39341;BME280;25059;52.132;21.062;2023-04-27T10:42:39;100577.72;;;17.69;36.46
39341;BME280;25059;52.132;21.062;2023-04-27T10:46:05;100575.03;;;18.23;34.60
39341;BME280;25059;52.132;21.062;2023-04-27T10:48:52;100576.00;;;17.95;35.02
39341;BME280;25059;52.132;21.062;2023-04-27T10:51:43;100572.94;;;18.41;34.56
39341;BME280;25059;52.132;21.062;2023-04-27T10:54:45;100570.06;;;19.33;33.77
39341;BME280;25059;52.132;21.062;2023-04-27T10:57:30;100579.69;;;18.20;33.75
39341;BME280;25059;52.132;21.062;2023-04-27T11:00:31;100581.69;;;18.56;33.84
39341;BME280;25059;52.132;21.062;2023-04-27T11:03:22;100571.13;;;19.30;32.80
39341;BME280;25059;52.132;21.062;2023-04-27T11:06:11;100572.47;;;19.49;32.86
39341;BME280;25059;52.132;21.062;2023-04-27T11:08:56;100569.81;;;20.44;31.26
39341;BME280;25059;52.132;21.062;2023-04-27T11:11:43;100593.13;;;19.71;31.66
39341;BME280;25059;52.132;21.062;2023-04-27T11:14:29;100571.69;;;20.66;31.77
39341;BME280;25059;52.132;21.062;2023-04-27T11:17:27;100570.47;;;20.00;32.24
39341;BME280;25059;52.132;21.062;2023-04-27T11:20:26;100585.06;;;20.07;32.64
39341;BME280;25059;52.132;21.062;2023-04-27T11:23:22;100581.97;;;21.39;32.06
39341;BME280;25059;52.132;21.062;2023-04-27T11:26:09;100585.84;;;21.02;32.57
39341;BME280;25059;52.132;21.062;2023-04-27T11:29:02;100578.53;;;21.04;33.29
39341;BME280;25059;52.132;21.062;2023-04-27T11:31:55;100559.72;;;22.46;31.36
39341;BME280;25059;52.132;21.062;2023-04-27T11:34:58;100576.22;;;22.83;30.93
39341;BME280;25059;52.132;21.062;2023-04-27T11:37:55;100571.69;;;22.63;31.21
39341;BME280;25059;52.132;21.062;2023-04-27T11:45:00;100563.47;;;21.90;32.09
39341;BME280;25059;52.132;21.062;2023-04-27T11:47:52;100562.88;;;21.21;31.80
39341;BME280;25059;52.132;21.062;2023-04-27T11:50:41;100563.13;;;22.48;29.95
39341;BME280;25059;52.132;21.062;2023-04-27T11:53:32;100573.94;;;22.05;28.21
39341;BME280;25059;52.132;21.062;2023-04-27T11:56:21;100580.81;;;21.75;28.01
39341;BME280;25059;52.132;21.062;2023-04-27T11:59:19;100564.44;;;21.57;28.09
39341;BME280;25059;52.132;21.062;2023-04-27T12:02:07;100561.06;;;24.51;26.29
39341;BME280;25059;52.132;21.062;2023-04-27T12:04:54;100563.28;;;24.74;25.96
39341;BME280;25059;52.132;21.062;2023-04-27T12:07:47;100573.03;;;23.69;26.88
39341;BME280;25059;52.132;21.062;2023-04-27T12:10:32;100586.09;;;21.21;29.42
39341;BME280;25059;52.132;21.062;2023-04-27T12:13:17;100574.00;;;20.59;30.03
39341;BME280;25059;52.132;21.062;2023-04-27T12:16:03;100582.50;;;20.29;30.51
39341;BME280;25059;52.132;21.062;2023-04-27T12:18:49;100583.75;;;20.13;31.34
39341;BME280;25059;52.132;21.062;2023-04-27T12:21:41;100578.38;;;20.60;29.62
39341;BME280;25059;52.132;21.062;2023-04-27T12:24:28;100562.84;;;22.09;29.09
39341;BME280;25059;52.132;21.062;2023-04-27T12:27:16;100565.47;;;21.77;27.91
39341;BME280;25059;52.132;21.062;2023-04-27T12:30:15;100574.03;;;21.04;29.22
39341;BME280;25059;52.132;21.062;2023-04-27T12:33:03;100554.03;;;21.75;28.36
39341;BME280;25059;52.132;21.062;2023-04-27T12:35:59;100561.59;;;23.27;27.45
39341;BME280;25059;52.132;21.062;2023-04-27T12:38:47;100576.06;;;22.43;27.02
39341;BME280;25059;52.132;21.062;2023-04-27T12:41:35;100571.84;;;22.08;27.13
39341;BME280;25059;52.132;21.062;2023-04-27T12:44:44;100560.34;;;23.01;26.04
39341;BME280;25059;52.132;21.062;2023-04-27T12:47:31;100576.66;;;22.46;26.78
39341;BME280;25059;52.132;21.062;2023-04-27T13:51:21;100583.97;;;19.00;29.43
39341;BME280;25059;52.132;21.062;2023-04-27T13:54:10;100615.41;;;18.82;30.06
39341;BME280;25059;52.132;21.062;2023-04-27T13:56:54;100614.53;;;19.20;29.87
39341;BME280;25059;52.132;21.062;2023-04-27T13:59:40;100615.81;;;19.27;30.27
39341;BME280;25059;52.132;21.062;2023-04-27T14:02:25;100621.25;;;18.75;30.95
39341;BME280;25059;52.132;21.062;2023-04-27T14:05:11;100620.41;;;18.34;31.30
39341;BME280;25059;52.132;21.062;2023-04-27T14:07:56;100625.66;;;18.09;31.02
39341;BME280;25059;52.132;21.062;2023-04-27T14:10:42;100639.81;;;17.54;31.43
39341;BME280;25059;52.132;21.062;2023-04-27T14:13:27;100610.47;;;18.24;30.69
39341;BME280;25059;52.132;21.062;2023-04-27T14:16:11;100618.38;;;18.65;31.10
39341;BME280;25059;52.132;21.062;2023-04-27T14:18:57;100620.88;;;18.54;30.61
39341;BME280;25059;52.132;21.062;2023-04-27T14:21:46;100626.19;;;19.81;29.56
39341;BME280;25059;52.132;21.062;2023-04-27T14:24:32;100616.97;;;19.35;29.69
39341;BME280;25059;52.132;21.062;2023-04-27T14:27:16;100601.91;;;19.60;29.72
39341;BME280;25059;52.132;21.062;2023-04-27T14:30:01;100610.25;;;19.43;29.71
39341;BME280;25059;52.132;21.062;2023-04-27T14:32:46;100625.78;;;20.22;28.80
39341;BME280;25059;52.132;21.062;2023-04-27T14:35:33;100630.59;;;19.69;29.24
39341;BME280;25059;52.132;21.062;2023-04-27T14:38:18;100624.25;;;18.83;30.30
39341;BME280;25059;52.132;21.062;2023-04-27T14:41:02;100633.84;;;19.85;29.56
39341;BME280;25059;52.132;21.062;2023-04-27T14:43:46;100620.72;;;19.20;30.50
39341;BME280;25059;52.132;21.062;2023-04-27T14:46:32;100628.81;;;20.41;29.00
39341;BME280;25059;52.132;21.062;2023-04-27T14:56:52;100639.50;;;19.31;30.11
39341;BME280;25059;52.132;21.062;2023-04-27T14:59:36;100649.53;;;19.90;28.33
39341;BME280;25059;52.132;21.062;2023-04-27T15:02:22;100634.88;;;19.46;27.67
39341;BME280;25059;52.132;21.062;2023-04-27T15:05:06;100642.56;;;20.24;27.57
39341;BME280;25059;52.132;21.062;2023-04-27T15:07:51;100634.28;;;19.79;27.42
39341;BME280;25059;52.132;21.062;2023-04-27T15:10:36;100639.16;;;20.22;27.10
39341;BME280;25059;52.132;21.062;2023-04-27T15:13:20;100648.00;;;20.22;27.28
39341;BME280;25059;52.132;21.062;2023-04-27T15:16:05;100640.88;;;20.47;27.11
39341;BME280;25059;52.132;21.062;2023-04-27T15:18:50;100646.69;;;20.28;27.87
39341;BME280;25059;52.132;21.062;2023-04-27T15:21:35;100658.25;;;19.30;29.14
39341;BME280;25059;52.132;21.062;2023-04-27T15:24:20;100651.06;;;18.27;30.33
39341;BME280;25059;52.132;21.062;2023-04-27T15:27:04;100650.84;;;18.30;30.97
39341;BME280;25059;52.132;21.062;2023-04-27T15:29:52;100648.28;;;18.29;30.92
39341;BME280;25059;52.132;21.062;2023-04-27T15:32:37;100653.88;;;17.70;31.68
39341;BME280;25059;52.132;21.062;2023-04-27T15:35:25;100643.16;;;17.99;31.53
39341;BME280;25059;52.132;21.062;2023-04-27T15:38:11;100652.16;;;17.84;31.95
39341;BME280;25059;52.132;21.062;2023-04-27T15:40:59;100663.91;;;18.21;31.81
39341;BME280;25059;52.132;21.062;2023-04-27T15:43:43;100628.28;;;18.63;31.01
39341;BME280;25059;52.132;21.062;2023-04-27T15:46:28;100647.59;;;19.04;31.21
39341;BME280;25059;52.132;21.062;2023-04-27T15:49:16;100660.78;;;18.68;30.60
39341;BME280;25059;52.132;21.062;2023-04-27T15:52:00;100651.16;;;18.26;30.81
39341;BME280;25059;52.132;21.062;2023-04-27T15:54:45;100640.31;;;18.29;30.86
39341;BME280;25059;52.132;21.062;2023-04-27T15:57:30;100646.97;;;18.88;30.74
39341;BME280;25059;52.132;21.062;2023-04-27T16:00:15;100646.19;;;18.74;30.81
39341;BME280;25059;52.132;21.062;2023-04-27T16:03:01;100665.91;;;18.17;31.22
39341;BME280;25059;52.132;21.062;2023-04-27T16:05:49;100667.22;;;18.24;31.78
39341;BME280;25059;52.132;21.062;2023-04-27T16:08:41;100658.38;;;18.51;31.09
39341;BME280;25059;52.132;21.062;2023-04-27T16:11:26;100662.94;;;18.49;31.18
39341;BME280;25059;52.132;21.062;2023-04-27T16:14:20;100657.69;;;18.34;32.24
39341;BME280;25059;52.132;21.062;2023-04-27T16:17:04;100637.06;;;18.51;31.91
39341;BME280;25059;52.132;21.062;2023-04-27T16:19:49;100664.31;;;18.15;32.10
39341;BME280;25059;52.132;21.062;2023-04-27T16:22:35;100671.13;;;17.92;32.05
39341;BME280;25059;52.132;21.062;2023-04-27T16:25:21;100677.22;;;17.51;32.06
39341;BME280;25059;52.132;21.062;2023-04-27T16:28:08;100675.06;;;17.43;32.15